sensor_id;sensor_type;location;lat;lon;timestamp;P1;durP1;ratioP1;P2;durP2;ratioP2
35418;SDS011;21525;41.240;16.500;2023-03-20T00:01:11;15.63;;;9.90;;
35418;SDS011;21525;41.240;16.500;2023-03-20T00:03:39;19.80;;;9.77;;
35418;SDS011;21525;41.240;16.500;2023-03-20T00:06:11;15.00;;;9.77;;
35418;SDS011;21525;41.240;16.500;2023-03-20T00:08:39;20.38;;;9.98;;
35418;SDS011;21525;41.240;16.500;2023-03-20T00:11:07;19.08;;;10.55;;
35418;SDS011;21525;41.240;16.500;2023-03-20T00:14:07;17.50;;;10.05;;
35418;SDS011;21525;41.240;16.500;2023-03-20T00:16:36;15.77;;;9.88;;
35418;SDS011;21525;41.240;16.500;2023-03-20T00:19:04;14.40;;;8.65;;
35418;SDS011;21525;41.240;16.500;2023-03-20T00:21:32;16.13;;;8.85;;
35418;SDS011;21525;41.240;16.500;2023-03-20T00:23:58;14.98;;;8.85;;
35418;SDS011;21525;41.240;16.500;2023-03-20T00:26:26;15.43;;;8.85;;
35418;SDS011;21525;41.240;16.500;2023-03-20T00:29:01;15.13;;;8.55;;
35418;SDS011;21525;41.240;16.500;2023-03-20T00:31:33;13.65;;;8.25;;
35418;SDS011;21525;41.240;16.500;2023-03-20T00:34:02;13.50;;;8.68;;
35418;SDS011;21525;41.240;16.500;2023-03-20T00:36:36;12.27;;;8.43;;
35418;SDS011;21525;41.240;16.500;2023-03-20T00:39:02;12.80;;;7.82;;
35418;SDS011;21525;41.240;16.500;2023-03-20T00:44:20;13.52;;;8.48;;
35418;SDS011;21525;41.240;16.500;2023-03-20T00:47:08;13.23;;;8.38;;
35418;SDS011;21525;41.240;16.500;2023-03-20T00:49:37;15.63;;;8.40;;
35418;SDS011;21525;41.240;16.500;2023-03-20T00:52:05;16.40;;;8.98;;
35418;SDS011;21525;41.240;16.500;2023-03-20T00:54:31;11.88;;;9.15;;
35418;SDS011;21525;41.240;16.500;2023-03-20T00:57:03;14.13;;;8.18;;
35418;SDS011;21525;41.240;16.500;2023-03-20T00:59:39;11.50;;;7.70;;
35418;SDS011;21525;41.240;16.500;2023-03-20T01:02:11;18.48;;;8.48;;
35418;SDS011;21525;41.240;16.500;2023-03-20T01:04:39;15.98;;;7.90;;
35418;SDS011;21525;41.240;16.500;2023-03-20T01:07:08;11.15;;;7.68;;
35418;SDS011;21525;41.240;16.500;2023-03-20T01:09:37;13.38;;;7.65;;
35418;SDS011;21525;41.240;16.500;2023-03-20T01:12:03;13.13;;;8.60;;
35418;SDS011;21525;41.240;16.500;2023-03-20T01:14:30;13.05;;;7.95;;
35418;SDS011;21525;41.240;16.500;2023-03-20T01:16:56;13.27;;;8.10;;
35418;SDS011;21525;41.240;16.500;2023-03-20T01:19:22;15.18;;;8.63;;
35418;SDS011;21525;41.240;16.500;2023-03-20T01:21:47;12.68;;;7.63;;
35418;SDS011;21525;41.240;16.500;2023-03-20T01:24:13;12.60;;;6.90;;
35418;SDS011;21525;41.240;16.500;2023-03-20T01:26:40;10.73;;;7.85;;
35418;SDS011;21525;41.240;16.500;2023-03-20T01:29:17;13.55;;;7.82;;
35418;SDS011;21525;41.240;16.500;2023-03-20T01:31:45;13.30;;;7.47;;
35418;SDS011;21525;41.240;16.500;2023-03-20T01:34:11;13.75;;;8.05;;
35418;SDS011;21525;41.240;16.500;2023-03-20T01:36:37;18.50;;;8.35;;
35418;SDS011;21525;41.240;16.500;2023-03-20T01:39:04;13.45;;;7.80;;
35418;SDS011;21525;41.240;16.500;2023-03-20T01:41:30;17.80;;;6.80;;
35418;SDS011;21525;41.240;16.500;2023-03-20T01:43:57;15.07;;;7.72;;
35418;SDS011;21525;41.240;16.500;2023-03-20T01:46:27;13.93;;;7.55;;
35418;SDS011;21525;41.240;16.500;2023-03-20T01:51:46;14.07;;;7.13;;
35418;SDS011;21525;41.240;16.500;2023-03-20T01:56:53;12.15;;;7.07;;
35418;SDS011;21525;41.240;16.500;2023-03-20T01:59:24;12.35;;;6.40;;
35418;SDS011;21525;41.240;16.500;2023-03-20T02:01:53;11.02;;;6.95;;
35418;SDS011;21525;41.240;16.500;2023-03-20T02:04:23;12.00;;;6.65;;
35418;SDS011;21525;41.240;16.500;2023-03-20T02:06:59;17.08;;;7.57;;
35418;SDS011;21525;41.240;16.500;2023-03-20T02:09:36;14.25;;;6.85;;
35418;SDS011;21525;41.240;16.500;2023-03-20T02:12:05;12.77;;;6.45;;
35418;SDS011;21525;41.240;16.500;2023-03-20T02:14:33;12.48;;;7.32;;
35418;SDS011;21525;41.240;16.500;2023-03-20T02:17:19;12.55;;;8.00;;
35418;SDS011;21525;41.240;16.500;2023-03-20T02:25:31;16.35;;;8.00;;
35418;SDS011;21525;41.240;16.500;2023-03-20T02:48:06;9.68;;;6.97;;
35418;SDS011;21525;41.240;16.500;2023-03-20T03:01:20;12.23;;;7.80;;
35418;SDS011;21525;41.240;16.500;2023-03-20T03:03:55;10.90;;;7.47;;
35418;SDS011;21525;41.240;16.500;2023-03-20T03:09:03;12.60;;;8.85;;
35418;SDS011;21525;41.240;16.500;2023-03-20T03:11:35;14.57;;;9.20;;
35418;SDS011;21525;41.240;16.500;2023-03-20T03:14:05;14.07;;;9.52;;
35418;SDS011;21525;41.240;16.500;2023-03-20T03:16:35;13.07;;;10.27;;
35418;SDS011;21525;41.240;16.500;2023-03-20T03:19:11;14.40;;;9.87;;
35418;SDS011;21525;41.240;16.500;2023-03-20T03:21:40;15.05;;;10.77;;
35418;SDS011;21525;41.240;16.500;2023-03-20T03:27:12;13.10;;;9.50;;
35418;SDS011;21525;41.240;16.500;2023-03-20T03:29:53;13.70;;;10.15;;
35418;SDS011;21525;41.240;16.500;2023-03-20T03:32:25;15.52;;;11.13;;
35418;SDS011;21525;41.240;16.500;2023-03-20T03:35:19;14.35;;;10.55;;
35418;SDS011;21525;41.240;16.500;2023-03-20T03:40:45;18.02;;;10.75;;
35418;SDS011;21525;41.240;16.500;2023-03-20T03:43:24;14.80;;;10.93;;
35418;SDS011;21525;41.240;16.500;2023-03-20T03:46:00;13.90;;;10.50;;
35418;SDS011;21525;41.240;16.500;2023-03-20T03:48:35;16.85;;;10.68;;
35418;SDS011;21525;41.240;16.500;2023-03-20T03:51:08;14.50;;;10.93;;
35418;SDS011;21525;41.240;16.500;2023-03-20T03:54:03;13.73;;;10.95;;
35418;SDS011;21525;41.240;16.500;2023-03-20T03:56:35;15.73;;;11.77;;
35418;SDS011;21525;41.240;16.500;2023-03-20T03:59:07;15.57;;;11.00;;
35418;SDS011;21525;41.240;16.500;2023-03-20T04:01:37;16.33;;;11.55;;
35418;SDS011;21525;41.240;16.500;2023-03-20T04:04:09;15.55;;;11.77;;
35418;SDS011;21525;41.240;16.500;2023-03-20T04:06:39;17.45;;;11.85;;
35418;SDS011;21525;41.240;16.500;2023-03-20T04:09:07;16.55;;;12.15;;
35418;SDS011;21525;41.240;16.500;2023-03-20T04:11:33;18.35;;;12.40;;
35418;SDS011;21525;41.240;16.500;2023-03-20T04:14:01;17.13;;;12.85;;
35418;SDS011;21525;41.240;16.500;2023-03-20T04:16:26;16.75;;;12.32;;
35418;SDS011;21525;41.240;16.500;2023-03-20T04:18:53;18.75;;;12.70;;
35418;SDS011;21525;41.240;16.500;2023-03-20T04:21:21;15.98;;;11.95;;
35418;SDS011;21525;41.240;16.500;2023-03-20T04:23:47;16.90;;;13.02;;
35418;SDS011;21525;41.240;16.500;2023-03-20T04:26:13;18.05;;;12.77;;
35418;SDS011;21525;41.240;16.500;2023-03-20T04:28:39;19.48;;;12.85;;
35418;SDS011;21525;41.240;16.500;2023-03-20T04:31:20;16.63;;;13.27;;
35418;SDS011;21525;41.240;16.500;2023-03-20T04:34:12;19.85;;;13.85;;
35418;SDS011;21525;41.240;16.500;2023-03-20T04:36:49;16.85;;;12.55;;
35418;SDS011;21525;41.240;16.500;2023-03-20T04:39:16;17.85;;;13.45;;
35418;SDS011;21525;41.240;16.500;2023-03-20T04:41:43;18.15;;;13.57;;
35418;SDS011;21525;41.240;16.500;2023-03-20T04:44:09;17.27;;;13.55;;
35418;SDS011;21525;41.240;16.500;2023-03-20T04:46:36;17.75;;;12.95;;
35418;SDS011;21525;41.240;16.500;2023-03-20T04:49:07;19.85;;;12.20;;
35418;SDS011;21525;41.240;16.500;2023-03-20T04:51:32;14.48;;;11.52;;
35418;SDS011;21525;41.240;16.500;2023-03-20T04:53:58;18.02;;;11.43;;
35418;SDS011;21525;41.240;16.500;2023-03-20T04:56:24;16.13;;;11.25;;
35418;SDS011;21525;41.240;16.500;2023-03-20T04:58:51;19.98;;;10.13;;
35418;SDS011;21525;41.240;16.500;2023-03-20T05:01:19;14.38;;;10.10;;
35418;SDS011;21525;41.240;16.500;2023-03-20T05:03:47;17.23;;;10.55;;
35418;SDS011;21525;41.240;16.500;2023-03-20T05:06:13;17.60;;;11.00;;
35418;SDS011;21525;41.240;16.500;2023-03-20T05:08:42;15.93;;;9.75;;
35418;SDS011;21525;41.240;16.500;2023-03-20T05:11:08;28.60;;;19.63;;
35418;SDS011;21525;41.240;16.500;2023-03-20T05:13:52;34.22;;;23.27;;
35418;SDS011;21525;41.240;16.500;2023-03-20T05:16:29;46.22;;;29.08;;
35418;SDS011;21525;41.240;16.500;2023-03-20T05:19:24;41.92;;;29.67;;
35418;SDS011;21525;41.240;16.500;2023-03-20T05:22:08;41.40;;;28.77;;
35418;SDS011;21525;41.240;16.500;2023-03-20T05:24:52;50.10;;;31.58;;
35418;SDS011;21525;41.240;16.500;2023-03-20T05:27:48;46.30;;;29.73;;
35418;SDS011;21525;41.240;16.500;2023-03-20T05:30:27;41.70;;;26.35;;
35418;SDS011;21525;41.240;16.500;2023-03-20T05:33:12;39.35;;;24.23;;
35418;SDS011;21525;41.240;16.500;2023-03-20T05:36:10;30.48;;;19.65;;
35418;SDS011;21525;41.240;16.500;2023-03-20T05:38:54;25.40;;;17.55;;
35418;SDS011;21525;41.240;16.500;2023-03-20T05:44:27;15.05;;;11.73;;
35418;SDS011;21525;41.240;16.500;2023-03-20T05:47:19;16.20;;;11.65;;
35418;SDS011;21525;41.240;16.500;2023-03-20T05:50:02;18.15;;;12.18;;
35418;SDS011;21525;41.240;16.500;2023-03-20T05:52:28;20.60;;;14.27;;
35418;SDS011;21525;41.240;16.500;2023-03-20T05:55:29;20.30;;;13.60;;
35418;SDS011;21525;41.240;16.500;2023-03-20T05:58:27;18.17;;;12.88;;
35418;SDS011;21525;41.240;16.500;2023-03-20T06:01:11;18.75;;;12.18;;
35418;SDS011;21525;41.240;16.500;2023-03-20T06:04:00;16.40;;;10.90;;
35418;SDS011;21525;41.240;16.500;2023-03-20T06:06:58;14.15;;;10.48;;
35418;SDS011;21525;41.240;16.500;2023-03-20T06:09:24;15.20;;;11.55;;
35418;SDS011;21525;41.240;16.500;2023-03-20T06:11:49;15.77;;;11.07;;
35418;SDS011;21525;41.240;16.500;2023-03-20T06:14:16;16.00;;;11.32;;
35418;SDS011;21525;41.240;16.500;2023-03-20T06:16:47;19.65;;;13.68;;
35418;SDS011;21525;41.240;16.500;2023-03-20T06:19:13;18.90;;;13.35;;
35418;SDS011;21525;41.240;16.500;2023-03-20T06:21:40;16.08;;;13.45;;
35418;SDS011;21525;41.240;16.500;2023-03-20T06:24:10;21.27;;;13.55;;
35418;SDS011;21525;41.240;16.500;2023-03-20T06:26:36;20.45;;;14.50;;
35418;SDS011;21525;41.240;16.500;2023-03-20T06:29:06;20.35;;;14.93;;
35418;SDS011;21525;41.240;16.500;2023-03-20T06:31:33;22.52;;;16.30;;
35418;SDS011;21525;41.240;16.500;2023-03-20T06:34:00;21.60;;;15.55;;
35418;SDS011;21525;41.240;16.500;2023-03-20T06:36:28;27.27;;;16.90;;
35418;SDS011;21525;41.240;16.500;2023-03-20T06:39:00;17.10;;;13.65;;
35418;SDS011;21525;41.240;16.500;2023-03-20T06:41:28;22.33;;;14.82;;
35418;SDS011;21525;41.240;16.500;2023-03-20T06:43:53;21.13;;;14.10;;
35418;SDS011;21525;41.240;16.500;2023-03-20T06:46:21;22.15;;;14.73;;
35418;SDS011;21525;41.240;16.500;2023-03-20T06:48:47;17.80;;;14.30;;
35418;SDS011;21525;41.240;16.500;2023-03-20T06:51:14;24.60;;;14.48;;
35418;SDS011;21525;41.240;16.500;2023-03-20T06:53:48;22.17;;;15.50;;
35418;SDS011;21525;41.240;16.500;2023-03-20T06:56:18;18.17;;;14.20;;
35418;SDS011;21525;41.240;16.500;2023-03-20T06:58:44;22.10;;;13.88;;
35418;SDS011;21525;41.240;16.500;2023-03-20T07:01:11;19.58;;;13.55;;
35418;SDS011;21525;41.240;16.500;2023-03-20T07:03:39;23.17;;;14.82;;
35418;SDS011;21525;41.240;16.500;2023-03-20T07:06:06;22.17;;;14.10;;
35418;SDS011;21525;41.240;16.500;2023-03-20T07:08:34;19.38;;;15.07;;
35418;SDS011;21525;41.240;16.500;2023-03-20T07:11:01;23.08;;;14.65;;
35418;SDS011;21525;41.240;16.500;2023-03-20T07:13:29;21.77;;;16.33;;
35418;SDS011;21525;41.240;16.500;2023-03-20T07:15:59;28.35;;;19.83;;
35418;SDS011;21525;41.240;16.500;2023-03-20T07:18:26;27.83;;;20.20;;
35418;SDS011;21525;41.240;16.500;2023-03-20T07:20:52;30.13;;;19.77;;
35418;SDS011;21525;41.240;16.500;2023-03-20T07:23:22;30.02;;;21.58;;
35418;SDS011;21525;41.240;16.500;2023-03-20T07:25:48;27.60;;;17.55;;
35418;SDS011;21525;41.240;16.500;2023-03-20T07:28:17;26.50;;;19.40;;
35418;SDS011;21525;41.240;16.500;2023-03-20T07:30:50;33.22;;;22.23;;
35418;SDS011;21525;41.240;16.500;2023-03-20T07:33:16;26.38;;;21.75;;
35418;SDS011;21525;41.240;16.500;2023-03-20T07:35:43;25.95;;;21.15;;
35418;SDS011;21525;41.240;16.500;2023-03-20T07:38:09;26.55;;;20.90;;
35418;SDS011;21525;41.240;16.500;2023-03-20T07:40:45;29.30;;;21.25;;
35418;SDS011;21525;41.240;16.500;2023-03-20T07:43:15;31.75;;;22.92;;
35418;SDS011;21525;41.240;16.500;2023-03-20T07:46:03;31.58;;;22.55;;
35418;SDS011;21525;41.240;16.500;2023-03-20T07:48:32;28.77;;;22.50;;
35418;SDS011;21525;41.240;16.500;2023-03-20T07:50:58;30.27;;;21.85;;
35418;SDS011;21525;41.240;16.500;2023-03-20T07:53:25;22.67;;;19.17;;
35418;SDS011;21525;41.240;16.500;2023-03-20T07:55:51;28.65;;;20.83;;
35418;SDS011;21525;41.240;16.500;2023-03-20T07:58:16;29.65;;;20.10;;
35418;SDS011;21525;41.240;16.500;2023-03-20T08:00:42;26.85;;;20.95;;
35418;SDS011;21525;41.240;16.500;2023-03-20T08:03:08;27.42;;;18.00;;
35418;SDS011;21525;41.240;16.500;2023-03-20T08:05:35;23.73;;;17.02;;
35418;SDS011;21525;41.240;16.500;2023-03-20T08:08:01;24.63;;;17.02;;
35418;SDS011;21525;41.240;16.500;2023-03-20T08:10:27;23.17;;;17.30;;
35418;SDS011;21525;41.240;16.500;2023-03-20T08:12:53;22.58;;;17.05;;
35418;SDS011;21525;41.240;16.500;2023-03-20T08:15:19;20.40;;;16.65;;
35418;SDS011;21525;41.240;16.500;2023-03-20T08:17:45;22.17;;;17.42;;
35418;SDS011;21525;41.240;16.500;2023-03-20T08:20:12;35.78;;;19.67;;
35418;SDS011;21525;41.240;16.500;2023-03-20T08:22:39;52.30;;;18.83;;
35418;SDS011;21525;41.240;16.500;2023-03-20T08:25:06;21.63;;;14.73;;
35418;SDS011;21525;41.240;16.500;2023-03-20T08:27:33;29.08;;;15.77;;
35418;SDS011;21525;41.240;16.500;2023-03-20T08:29:59;22.23;;;15.07;;
35418;SDS011;21525;41.240;16.500;2023-03-20T08:32:25;20.65;;;15.38;;
35418;SDS011;21525;41.240;16.500;2023-03-20T08:34:51;32.85;;;17.50;;
35418;SDS011;21525;41.240;16.500;2023-03-20T08:37:19;17.65;;;14.00;;
35418;SDS011;21525;41.240;16.500;2023-03-20T08:39:46;25.35;;;15.45;;
35418;SDS011;21525;41.240;16.500;2023-03-20T08:42:12;25.58;;;14.75;;
35418;SDS011;21525;41.240;16.500;2023-03-20T08:44:38;25.27;;;15.90;;
35418;SDS011;21525;41.240;16.500;2023-03-20T08:47:04;20.98;;;16.40;;
35418;SDS011;21525;41.240;16.500;2023-03-20T08:49:32;22.83;;;15.73;;
35418;SDS011;21525;41.240;16.500;2023-03-20T08:51:58;25.92;;;16.75;;
35418;SDS011;21525;41.240;16.500;2023-03-20T08:54:24;19.83;;;15.15;;
35418;SDS011;21525;41.240;16.500;2023-03-20T08:56:50;22.85;;;14.48;;
35418;SDS011;21525;41.240;16.500;2023-03-20T08:59:16;18.25;;;15.18;;
35418;SDS011;21525;41.240;16.500;2023-03-20T09:01:43;21.02;;;15.80;;
35418;SDS011;21525;41.240;16.500;2023-03-20T09:04:10;20.58;;;14.73;;
35418;SDS011;21525;41.240;16.500;2023-03-20T09:06:37;19.48;;;16.02;;
35418;SDS011;21525;41.240;16.500;2023-03-20T09:09:04;20.52;;;16.90;;
35418;SDS011;21525;41.240;16.500;2023-03-20T09:11:30;20.95;;;16.70;;
35418;SDS011;21525;41.240;16.500;2023-03-20T09:13:56;20.67;;;16.88;;
35418;SDS011;21525;41.240;16.500;2023-03-20T09:16:23;23.35;;;17.30;;
35418;SDS011;21525;41.240;16.500;2023-03-20T09:18:49;30.05;;;17.40;;
35418;SDS011;21525;41.240;16.500;2023-03-20T09:21:15;22.67;;;15.98;;
35418;SDS011;21525;41.240;16.500;2023-03-20T09:23:41;21.27;;;16.42;;
35418;SDS011;21525;41.240;16.500;2023-03-20T09:26:07;24.67;;;17.63;;
35418;SDS011;21525;41.240;16.500;2023-03-20T09:28:34;21.48;;;16.85;;
35418;SDS011;21525;41.240;16.500;2023-03-20T09:30:59;24.90;;;16.33;;
35418;SDS011;21525;41.240;16.500;2023-03-20T09:33:25;21.65;;;15.60;;
35418;SDS011;21525;41.240;16.500;2023-03-20T09:35:51;23.85;;;17.33;;
35418;SDS011;21525;41.240;16.500;2023-03-20T09:38:17;22.92;;;16.98;;
35418;SDS011;21525;41.240;16.500;2023-03-20T09:40:56;24.38;;;16.75;;
35418;SDS011;21525;41.240;16.500;2023-03-20T09:43:43;22.33;;;16.88;;
35418;SDS011;21525;41.240;16.500;2023-03-20T09:52:34;28.25;;;18.00;;
35418;SDS011;21525;41.240;16.500;2023-03-20T09:55:07;25.83;;;18.55;;
35418;SDS011;21525;41.240;16.500;2023-03-20T09:57:48;23.42;;;17.50;;
35418;SDS011;21525;41.240;16.500;2023-03-20T10:00:19;27.80;;;17.90;;
35418;SDS011;21525;41.240;16.500;2023-03-20T10:05:23;27.48;;;19.63;;
35418;SDS011;21525;41.240;16.500;2023-03-20T10:08:03;26.42;;;19.67;;
35418;SDS011;21525;41.240;16.500;2023-03-20T10:18:58;25.35;;;19.15;;
35418;SDS011;21525;41.240;16.500;2023-03-20T10:21:41;27.57;;;19.80;;
35418;SDS011;21525;41.240;16.500;2023-03-20T10:24:22;27.17;;;19.13;;
35418;SDS011;21525;41.240;16.500;2023-03-20T10:26:54;28.90;;;19.75;;
35418;SDS011;21525;41.240;16.500;2023-03-20T10:32:13;30.17;;;20.95;;
35418;SDS011;21525;41.240;16.500;2023-03-20T10:42:36;33.03;;;22.95;;
35418;SDS011;21525;41.240;16.500;2023-03-20T10:45:17;30.48;;;21.67;;
35418;SDS011;21525;41.240;16.500;2023-03-20T10:47:55;31.80;;;21.95;;
35418;SDS011;21525;41.240;16.500;2023-03-20T10:50:26;31.30;;;22.00;;
35418;SDS011;21525;41.240;16.500;2023-03-20T10:52:55;31.63;;;21.10;;
35418;SDS011;21525;41.240;16.500;2023-03-20T10:55:24;30.13;;;21.58;;
35418;SDS011;21525;41.240;16.500;2023-03-20T10:57:55;33.50;;;22.83;;
35418;SDS011;21525;41.240;16.500;2023-03-20T11:00:25;28.85;;;20.65;;
35418;SDS011;21525;41.240;16.500;2023-03-20T11:02:51;32.85;;;21.48;;
35418;SDS011;21525;41.240;16.500;2023-03-20T11:05:38;30.88;;;22.08;;
35418;SDS011;21525;41.240;16.500;2023-03-20T11:08:07;32.88;;;21.75;;
35418;SDS011;21525;41.240;16.500;2023-03-20T11:10:38;31.45;;;21.17;;
35418;SDS011;21525;41.240;16.500;2023-03-20T11:13:13;30.67;;;21.65;;
35418;SDS011;21525;41.240;16.500;2023-03-20T11:15:41;28.58;;;21.05;;
35418;SDS011;21525;41.240;16.500;2023-03-20T11:18:09;30.90;;;22.15;;
35418;SDS011;21525;41.240;16.500;2023-03-20T11:20:48;32.38;;;21.23;;
35418;SDS011;21525;41.240;16.500;2023-03-20T11:23:18;28.08;;;22.05;;
35418;SDS011;21525;41.240;16.500;2023-03-20T11:25:49;32.35;;;21.63;;
35418;SDS011;21525;41.240;16.500;2023-03-20T11:30:59;31.30;;;20.85;;
35418;SDS011;21525;41.240;16.500;2023-03-20T11:33:28;31.27;;;21.15;;
35418;SDS011;21525;41.240;16.500;2023-03-20T11:35:55;35.28;;;20.52;;
35418;SDS011;21525;41.240;16.500;2023-03-20T11:38:23;30.77;;;21.20;;
35418;SDS011;21525;41.240;16.500;2023-03-20T11:40:49;31.45;;;20.92;;
35418;SDS011;21525;41.240;16.500;2023-03-20T11:43:25;30.15;;;20.13;;
35418;SDS011;21525;41.240;16.500;2023-03-20T11:45:56;33.58;;;21.00;;
35418;SDS011;21525;41.240;16.500;2023-03-20T11:48:25;38.15;;;19.98;;
35418;SDS011;21525;41.240;16.500;2023-03-20T11:51:05;24.43;;;17.53;;
35418;SDS011;21525;41.240;16.500;2023-03-20T11:53:40;24.38;;;17.02;;
35418;SDS011;21525;41.240;16.500;2023-03-20T11:56:24;23.98;;;17.20;;
35418;SDS011;21525;41.240;16.500;2023-03-20T11:59:00;23.13;;;17.08;;
35418;SDS011;21525;41.240;16.500;2023-03-20T12:01:51;26.17;;;16.33;;
35418;SDS011;21525;41.240;16.500;2023-03-20T12:04:33;23.55;;;16.40;;
35418;SDS011;21525;41.240;16.500;2023-03-20T12:07:24;26.95;;;17.45;;
35418;SDS011;21525;41.240;16.500;2023-03-20T12:10:01;24.98;;;19.67;;
35418;SDS011;21525;41.240;16.500;2023-03-20T12:12:48;26.13;;;17.08;;
35418;SDS011;21525;41.240;16.500;2023-03-20T12:15:24;26.13;;;17.55;;
35418;SDS011;21525;41.240;16.500;2023-03-20T12:20:38;29.42;;;17.73;;
35418;SDS011;21525;41.240;16.500;2023-03-20T12:23:10;22.27;;;15.35;;
35418;SDS011;21525;41.240;16.500;2023-03-20T12:25:51;25.15;;;15.40;;
35418;SDS011;21525;41.240;16.500;2023-03-20T12:28:39;18.95;;;14.57;;
35418;SDS011;21525;41.240;16.500;2023-03-20T12:31:11;20.67;;;14.75;;
35418;SDS011;21525;41.240;16.500;2023-03-20T12:33:50;21.75;;;14.88;;
35418;SDS011;21525;41.240;16.500;2023-03-20T12:36:33;20.38;;;15.48;;
35418;SDS011;21525;41.240;16.500;2023-03-20T12:39:04;22.58;;;16.23;;
35418;SDS011;21525;41.240;16.500;2023-03-20T12:44:29;23.15;;;16.80;;
35418;SDS011;21525;41.240;16.500;2023-03-20T12:52:30;24.50;;;16.02;;
35418;SDS011;21525;41.240;16.500;2023-03-20T12:55:04;24.30;;;15.43;;
35418;SDS011;21525;41.240;16.500;2023-03-20T13:00:21;24.20;;;15.80;;
35418;SDS011;21525;41.240;16.500;2023-03-20T13:05:42;25.55;;;15.88;;
35418;SDS011;21525;41.240;16.500;2023-03-20T13:08:24;22.08;;;14.88;;
35418;SDS011;21525;41.240;16.500;2023-03-20T13:13:43;21.73;;;13.38;;
35418;SDS011;21525;41.240;16.500;2023-03-20T13:19:17;17.83;;;13.88;;
35418;SDS011;21525;41.240;16.500;2023-03-20T13:24:30;21.02;;;13.00;;
35418;SDS011;21525;41.240;16.500;2023-03-20T13:27:06;19.75;;;13.50;;
35418;SDS011;21525;41.240;16.500;2023-03-20T13:29:40;17.50;;;12.15;;
35418;SDS011;21525;41.240;16.500;2023-03-20T13:45:18;21.63;;;13.75;;
35418;SDS011;21525;41.240;16.500;2023-03-20T13:47:59;23.25;;;13.15;;
35418;SDS011;21525;41.240;16.500;2023-03-20T13:50:44;21.02;;;14.95;;
35418;SDS011;21525;41.240;16.500;2023-03-20T14:04:21;21.48;;;14.95;;
35418;SDS011;21525;41.240;16.500;2023-03-20T14:06:52;21.38;;;14.02;;
35418;SDS011;21525;41.240;16.500;2023-03-20T14:09:40;18.13;;;14.55;;
35418;SDS011;21525;41.240;16.500;2023-03-20T14:12:06;21.55;;;13.98;;
35418;SDS011;21525;41.240;16.500;2023-03-20T14:14:42;24.88;;;14.80;;
35418;SDS011;21525;41.240;16.500;2023-03-20T14:17:14;19.30;;;14.80;;
35418;SDS011;21525;41.240;16.500;2023-03-20T14:19:46;21.50;;;14.60;;
35418;SDS011;21525;41.240;16.500;2023-03-20T14:22:18;19.80;;;14.63;;
35418;SDS011;21525;41.240;16.500;2023-03-20T14:24:50;20.77;;;15.07;;
35418;SDS011;21525;41.240;16.500;2023-03-20T14:27:22;24.30;;;15.10;;
35418;SDS011;21525;41.240;16.500;2023-03-20T14:29:51;23.77;;;15.93;;
35418;SDS011;21525;41.240;16.500;2023-03-20T14:34:52;23.63;;;15.57;;
35418;SDS011;21525;41.240;16.500;2023-03-20T14:42:53;22.92;;;16.48;;
35418;SDS011;21525;41.240;16.500;2023-03-20T14:45:42;24.10;;;16.42;;
35418;SDS011;21525;41.240;16.500;2023-03-20T14:48:26;21.55;;;16.10;;
35418;SDS011;21525;41.240;16.500;2023-03-20T14:53:38;22.33;;;16.55;;
35418;SDS011;21525;41.240;16.500;2023-03-20T14:58:46;23.90;;;17.83;;
35418;SDS011;21525;41.240;16.500;2023-03-20T15:04:04;22.98;;;16.13;;
35418;SDS011;21525;41.240;16.500;2023-03-20T15:06:34;24.67;;;16.55;;
35418;SDS011;21525;41.240;16.500;2023-03-20T15:09:08;25.83;;;16.70;;
35418;SDS011;21525;41.240;16.500;2023-03-20T15:11:36;20.52;;;16.15;;
35418;SDS011;21525;41.240;16.500;2023-03-20T15:14:03;25.20;;;16.50;;
35418;SDS011;21525;41.240;16.500;2023-03-20T15:16:33;28.95;;;17.38;;
35418;SDS011;21525;41.240;16.500;2023-03-20T15:19:00;24.40;;;16.47;;
35418;SDS011;21525;41.240;16.500;2023-03-20T15:21:32;21.30;;;16.73;;
35418;SDS011;21525;41.240;16.500;2023-03-20T15:23:59;26.83;;;16.10;;
35418;SDS011;21525;41.240;16.500;2023-03-20T15:26:26;29.48;;;17.10;;
35418;SDS011;21525;41.240;16.500;2023-03-20T15:28:55;26.20;;;18.00;;
35418;SDS011;21525;41.240;16.500;2023-03-20T15:31:37;23.15;;;17.02;;
35418;SDS011;21525;41.240;16.500;2023-03-20T15:34:08;29.33;;;16.60;;
35418;SDS011;21525;41.240;16.500;2023-03-20T15:36:41;23.52;;;17.23;;
35418;SDS011;21525;41.240;16.500;2023-03-20T15:39:15;22.83;;;15.93;;
35418;SDS011;21525;41.240;16.500;2023-03-20T15:41:47;22.73;;;16.30;;
35418;SDS011;21525;41.240;16.500;2023-03-20T15:44:24;25.25;;;17.85;;
35418;SDS011;21525;41.240;16.500;2023-03-20T15:46:56;22.55;;;16.90;;
35418;SDS011;21525;41.240;16.500;2023-03-20T15:49:25;25.00;;;16.02;;
35418;SDS011;21525;41.240;16.500;2023-03-20T15:51:52;24.65;;;16.92;;
35418;SDS011;21525;41.240;16.500;2023-03-20T15:54:21;25.30;;;16.38;;
35418;SDS011;21525;41.240;16.500;2023-03-20T15:56:49;24.00;;;18.10;;
35418;SDS011;21525;41.240;16.500;2023-03-20T15:59:18;21.80;;;16.92;;
35418;SDS011;21525;41.240;16.500;2023-03-20T16:01:48;23.92;;;16.85;;
35418;SDS011;21525;41.240;16.500;2023-03-20T16:04:16;23.63;;;16.08;;
35418;SDS011;21525;41.240;16.500;2023-03-20T16:06:53;27.80;;;17.00;;
35418;SDS011;21525;41.240;16.500;2023-03-20T16:09:24;25.35;;;15.80;;
35418;SDS011;21525;41.240;16.500;2023-03-20T16:11:57;21.73;;;15.90;;
35418;SDS011;21525;41.240;16.500;2023-03-20T16:14:27;21.88;;;13.88;;
35418;SDS011;21525;41.240;16.500;2023-03-20T16:16:57;19.98;;;15.02;;
35418;SDS011;21525;41.240;16.500;2023-03-20T16:21:54;24.70;;;14.60;;
35418;SDS011;21525;41.240;16.500;2023-03-20T16:24:45;21.95;;;14.98;;
35418;SDS011;21525;41.240;16.500;2023-03-20T16:27:12;22.27;;;15.53;;
35418;SDS011;21525;41.240;16.500;2023-03-20T16:29:44;21.98;;;15.05;;
35418;SDS011;21525;41.240;16.500;2023-03-20T16:32:57;28.42;;;16.88;;
35418;SDS011;21525;41.240;16.500;2023-03-20T16:37:26;23.75;;;17.85;;
35418;SDS011;21525;41.240;16.500;2023-03-20T16:40:11;21.00;;;15.90;;
35418;SDS011;21525;41.240;16.500;2023-03-20T16:42:43;25.45;;;16.15;;
35418;SDS011;21525;41.240;16.500;2023-03-20T16:45:22;24.25;;;16.10;;
35418;SDS011;21525;41.240;16.500;2023-03-20T16:47:50;23.73;;;17.40;;
35418;SDS011;21525;41.240;16.500;2023-03-20T16:50:53;26.50;;;16.65;;
35418;SDS011;21525;41.240;16.500;2023-03-20T16:53:22;27.10;;;17.70;;
35418;SDS011;21525;41.240;16.500;2023-03-20T16:55:51;25.75;;;17.98;;
35418;SDS011;21525;41.240;16.500;2023-03-20T16:58:22;31.05;;;19.58;;
35418;SDS011;21525;41.240;16.500;2023-03-20T17:01:02;33.75;;;16.65;;
35418;SDS011;21525;41.240;16.500;2023-03-20T17:03:34;29.13;;;17.53;;
35418;SDS011;21525;41.240;16.500;2023-03-20T17:08:49;25.90;;;16.20;;
35418;SDS011;21525;41.240;16.500;2023-03-20T17:11:21;20.95;;;15.88;;
35418;SDS011;21525;41.240;16.500;2023-03-20T17:13:52;23.55;;;15.70;;
35418;SDS011;21525;41.240;16.500;2023-03-20T17:16:18;17.63;;;13.23;;
35418;SDS011;21525;41.240;16.500;2023-03-20T17:18:46;21.02;;;15.05;;